Terminal Aerodrome Forecast
Issued by NWS

Home | Current Version | Previous Version | Text Only | Print | Product List | Glossary On
Versions: 1 2 3 4 5 6 7 8 9 10 11 12 13 14
909
FTUS43 KAPX 021720
TAFAPN
TAF
KAPN 021720Z 0218/0318 30011G18KT P6SM SCT012 OVC020
      TEMPO 0218/0220 -SHRASN
     FM030000 30006KT P6SM OVC019
     FM031400 31006KT P6SM OVC022=

USA.gov is the U.S. government's official web portal to all federal, state and local government web resources and services.